Time;durP1;ratioP1;P1;durP2;ratioP2;P2;SDS_P1;SDS_P2;PMS_P1;PMS_P2;Temp;Humidity;BMP_temperature;BMP_pressure;BME280_temperature;BME280_humidity;BME280_pressure;Samples;Min_cycle;Max_cycle;Signal;HPM_P1;HPM_P2
2020/12/02 00:01:34;;;;;;;15.32;8.07;;;3.90;99.90;;;;;;5082644;28;20214;-73
2020/12/02 00:04:06;;;;;;;13.55;6.57;;;3.80;99.90;;;;;;5084467;28;20687;-73
2020/12/02 00:06:33;;;;;;;11.45;7.28;;;3.80;99.90;;;;;;5083091;28;20203;-72
2020/12/02 00:09:07;;;;;;;13.10;6.95;;;3.80;99.90;;;;;;5083815;28;20198;-75
2020/12/02 00:11:33;;;;;;;10.48;6.13;;;3.80;99.90;;;;;;5084867;28;20214;-74
2020/12/02 00:14:02;;;;;;;16.05;7.18;;;3.90;99.90;;;;;;5084257;28;20201;-73
2020/12/02 00:16:32;;;;;;;16.27;7.30;;;4.00;99.90;;;;;;5082833;28;20195;-76
2020/12/02 00:18:59;;;;;;;13.07;6.05;;;4.10;99.90;;;;;;5094015;28;20190;-73
2020/12/02 00:21:28;;;;;;;15.20;7.57;;;4.10;99.90;;;;;;5093951;28;20238;-73
2020/12/02 00:23:54;;;;;;;14.65;7.00;;;4.10;99.90;;;;;;5095445;28;20202;-73
2020/12/02 00:26:23;;;;;;;16.35;7.53;;;4.10;99.90;;;;;;5095141;28;20556;-73
2020/12/02 00:28:50;;;;;;;10.25;6.85;;;4.20;99.90;;;;;;5095362;28;20206;-73
2020/12/02 00:31:17;;;;;;;11.50;7.20;;;4.10;99.90;;;;;;5095229;28;20664;-71
2020/12/02 00:33:43;;;;;;;16.80;6.65;;;4.00;99.90;;;;;;5087848;28;20211;-73
2020/12/02 00:36:09;;;;;;;11.57;6.50;;;4.10;99.90;;;;;;5100278;28;20206;-73
2020/12/02 00:38:36;;;;;;;16.80;7.40;;;4.10;99.90;;;;;;5093668;28;20198;-73
2020/12/02 00:41:03;;;;;;;12.18;5.93;;;4.10;99.90;;;;;;5093569;28;20226;-73
2020/12/02 00:43:31;;;;;;;14.23;6.15;;;3.90;99.90;;;;;;5093925;28;20244;-72
2020/12/02 00:46:00;;;;;;;10.75;6.72;;;4.00;99.90;;;;;;5093840;28;20202;-73
2020/12/02 00:48:29;;;;;;;14.70;6.47;;;4.00;99.90;;;;;;5093433;28;20210;-72
2020/12/02 00:50:58;;;;;;;12.05;7.53;;;4.10;99.90;;;;;;5093240;28;20224;-74
2020/12/02 00:53:26;;;;;;;13.68;7.38;;;4.10;99.90;;;;;;5093611;28;20206;-74
2020/12/02 00:55:53;;;;;;;15.95;7.72;;;4.10;99.90;;;;;;5093231;28;20660;-74
2020/12/02 00:58:32;;;;;;;18.17;7.50;;;4.20;99.90;;;;;;5093377;28;20682;-74
2020/12/02 01:01:02;;;;;;;16.85;6.10;;;4.00;99.90;;;;;;5093279;28;20218;-74
2020/12/02 01:03:30;;;;;;;11.75;6.07;;;4.00;99.90;;;;;;5093095;28;20656;-72
2020/12/02 01:05:59;;;;;;;13.63;7.90;;;3.90;99.90;;;;;;5093373;28;20206;-73
2020/12/02 01:08:29;;;;;;;16.00;6.65;;;3.90;99.90;;;;;;5093481;28;20289;-72
2020/12/02 01:11:02;;;;;;;13.10;7.50;;;3.70;99.90;;;;;;5093062;28;20239;-72
2020/12/02 01:13:32;;;;;;;10.38;6.45;;;3.70;99.90;;;;;;5093113;28;20202;-72
2020/12/02 01:16:00;;;;;;;13.93;7.15;;;3.80;99.90;;;;;;5092855;28;20204;-72
2020/12/02 01:18:27;;;;;;;12.40;5.88;;;3.90;99.90;;;;;;5093503;28;20206;-72
2020/12/02 01:21:02;;;;;;;13.80;7.57;;;3.80;99.90;;;;;;5093112;28;20867;-73
2020/12/02 01:23:29;;;;;;;15.80;5.68;;;3.90;99.90;;;;;;5092873;28;20240;-73
2020/12/02 01:25:56;;;;;;;13.65;6.60;;;4.00;99.90;;;;;;5092851;28;20198;-72
2020/12/02 01:28:29;;;;;;;15.27;7.15;;;4.00;99.90;;;;;;5092740;28;20201;-74
2020/12/02 01:30:57;;;;;;;12.30;7.22;;;4.00;99.90;;;;;;5092843;28;20699;-72
2020/12/02 01:33:24;;;;;;;14.15;7.32;;;4.10;99.90;;;;;;5092850;28;20220;-73
2020/12/02 01:35:52;;;;;;;11.80;7.18;;;4.00;99.90;;;;;;5092060;28;20292;-73
2020/12/02 01:38:24;;;;;;;13.65;6.15;;;4.00;99.90;;;;;;5092714;28;20206;-73
2020/12/02 01:40:53;;;;;;;13.30;6.25;;;4.00;99.90;;;;;;5092941;28;20718;-73
2020/12/02 01:43:20;;;;;;;12.75;6.32;;;3.90;99.90;;;;;;5092745;28;20213;-73
2020/12/02 01:45:49;;;;;;;11.75;6.28;;;3.80;99.90;;;;;;5092341;28;20213;-73
2020/12/02 01:48:40;;;;;;;15.18;6.60;;;3.70;99.90;;;;;;5093640;28;20213;-71
2020/12/02 01:51:12;;;;;;;11.50;5.95;;;3.60;99.90;;;;;;5093750;28;20226;-72
2020/12/02 01:53:47;;;;;;;14.23;6.25;;;3.60;99.90;;;;;;5089400;28;20186;-71
2020/12/02 01:56:20;;;;;;;12.23;6.28;;;3.70;99.90;;;;;;5083272;28;20198;-72
2020/12/02 01:58:57;;;;;;;11.02;6.10;;;3.70;99.90;;;;;;5081632;28;20648;-73
2020/12/02 02:01:38;;;;;;;10.10;6.15;;;3.60;99.90;;;;;;5084123;28;20209;-76
2020/12/02 02:04:07;;;;;;;14.45;7.30;;;3.50;99.90;;;;;;5081723;28;20205;-75
2020/12/02 02:07:01;;;;;;;13.60;6.80;;;3.60;99.90;;;;;;5081408;28;20190;-72
2020/12/02 02:09:29;;;;;;;12.38;6.72;;;3.60;99.90;;;;;;5082173;28;20687;-73
2020/12/02 02:12:07;;;;;;;12.20;7.50;;;3.60;99.90;;;;;;5087732;28;20699;-73
2020/12/02 02:14:39;;;;;;;11.45;6.55;;;3.60;99.90;;;;;;5081534;28;20604;-73
2020/12/02 02:17:06;;;;;;;14.02;6.53;;;3.70;99.90;;;;;;5081088;28;20205;-72
2020/12/02 02:19:33;;;;;;;12.15;5.90;;;3.70;99.90;;;;;;5082948;28;20684;-72
2020/12/02 02:21:59;;;;;;;12.10;6.22;;;3.90;99.90;;;;;;5080469;28;20213;-73
2020/12/02 02:24:26;;;;;;;13.40;6.22;;;3.90;99.90;;;;;;5082759;28;20190;-72
2020/12/02 02:26:55;;;;;;;16.63;8.05;;;4.10;99.90;;;;;;5081090;28;20194;-73
2020/12/02 02:29:24;;;;;;;12.63;6.75;;;4.10;99.90;;;;;;5081445;28;20198;-73
2020/12/02 02:31:55;;;;;;;12.77;6.72;;;4.10;99.90;;;;;;5080079;28;20313;-74
2020/12/02 02:34:23;;;;;;;15.52;6.53;;;4.10;99.90;;;;;;5082649;28;20623;-74
2020/12/02 02:36:49;;;;;;;10.88;6.90;;;4.10;99.90;;;;;;5080585;28;20201;-73
2020/12/02 02:39:16;;;;;;;12.77;6.63;;;3.90;99.90;;;;;;5081824;28;20563;-72
2020/12/02 02:41:43;;;;;;;14.23;6.43;;;3.80;99.90;;;;;;5082978;28;20215;-73
2020/12/02 02:44:12;;;;;;;13.32;6.75;;;3.80;99.90;;;;;;5089884;28;20203;-70
2020/12/02 02:46:38;;;;;;;14.90;7.80;;;3.90;99.90;;;;;;5095458;28;20216;-71
2020/12/02 02:49:05;;;;;;;15.60;5.97;;;3.80;99.90;;;;;;5097499;28;20206;-71
2020/12/02 02:51:32;;;;;;;12.43;7.60;;;3.70;99.90;;;;;;5097354;28;20577;-70
2020/12/02 02:53:58;;;;;;;11.13;6.78;;;3.70;99.90;;;;;;5097806;28;20202;-71
2020/12/02 02:56:25;;;;;;;17.98;6.90;;;3.70;99.90;;;;;;5096958;28;20582;-71
2020/12/02 02:58:51;;;;;;;14.63;6.93;;;3.70;99.90;;;;;;5096904;28;20201;-70
2020/12/02 03:01:20;;;;;;;13.90;7.38;;;3.60;99.90;;;;;;5096896;28;20698;-71
2020/12/02 03:03:46;;;;;;;12.90;6.38;;;3.50;99.90;;;;;;5097493;28;20631;-70
2020/12/02 03:06:13;;;;;;;12.80;6.28;;;3.40;99.90;;;;;;5096516;28;20208;-71
2020/12/02 03:08:40;;;;;;;14.32;6.20;;;3.40;99.90;;;;;;5097293;28;20209;-71
2020/12/02 03:11:10;;;;;;;16.02;6.63;;;3.50;99.90;;;;;;5096913;28;20549;-71
2020/12/02 03:13:39;;;;;;;16.08;6.40;;;3.60;99.90;;;;;;5096936;28;20199;-71
2020/12/02 03:16:11;;;;;;;11.13;5.63;;;3.70;99.90;;;;;;5096716;28;20658;-71
2020/12/02 03:18:40;;;;;;;16.02;6.50;;;3.60;99.90;;;;;;5097016;28;20206;-71
2020/12/02 03:21:11;;;;;;;14.25;7.07;;;3.60;99.90;;;;;;5097006;28;20222;-71
2020/12/02 03:23:37;;;;;;;9.70;6.65;;;3.60;99.90;;;;;;5096708;28;20606;-71
2020/12/02 03:26:04;;;;;;;12.00;6.18;;;3.70;99.90;;;;;;5096468;28;20198;-71
2020/12/02 03:28:30;;;;;;;12.93;6.30;;;3.70;99.90;;;;;;5096673;28;20202;-71
2020/12/02 03:30:59;;;;;;;10.95;6.40;;;3.80;99.90;;;;;;5096687;28;20225;-71
2020/12/02 03:33:25;;;;;;;12.45;6.82;;;3.90;99.90;;;;;;5097004;28;20578;-71
2020/12/02 03:35:54;;;;;;;14.98;6.28;;;3.90;99.90;;;;;;5095868;28;20202;-71
2020/12/02 03:38:20;;;;;;;15.02;6.90;;;3.80;99.90;;;;;;5096377;28;20288;-71
2020/12/02 03:40:46;;;;;;;11.05;6.07;;;3.70;99.90;;;;;;5096101;28;20226;-70
2020/12/02 03:43:13;;;;;;;17.50;7.25;;;3.70;99.90;;;;;;5096653;28;20204;-71
2020/12/02 03:45:42;;;;;;;17.63;6.85;;;3.60;99.90;;;;;;5095804;28;20660;-71
2020/12/02 03:48:10;;;;;;;12.63;6.40;;;3.70;99.90;;;;;;5095747;28;20216;-71
2020/12/02 03:50:38;;;;;;;12.07;6.70;;;3.80;99.90;;;;;;5095978;28;20571;-71
2020/12/02 03:53:06;;;;;;;14.07;7.20;;;3.90;99.90;;;;;;5096164;28;20252;-71
2020/12/02 03:55:32;;;;;;;16.23;6.57;;;4.00;99.90;;;;;;5095602;28;20559;-71
2020/12/02 03:57:59;;;;;;;12.70;6.45;;;4.10;99.90;;;;;;5095458;28;20202;-71
2020/12/02 04:00:26;;;;;;;13.50;7.45;;;4.10;99.90;;;;;;5096089;28;20202;-70
2020/12/02 04:02:52;;;;;;;12.82;7.05;;;4.10;99.90;;;;;;5095827;28;20224;-71
2020/12/02 04:05:18;;;;;;;12.65;7.40;;;4.00;99.90;;;;;;5095675;28;20209;-71
2020/12/02 04:07:45;;;;;;;12.93;6.15;;;3.80;99.90;;;;;;5095810;28;20198;-71
2020/12/02 04:10:12;;;;;;;14.65;6.97;;;3.90;99.90;;;;;;5095780;28;20208;-70
2020/12/02 04:12:39;;;;;;;14.38;7.00;;;3.90;99.90;;;;;;5095245;28;20218;-70
2020/12/02 04:15:05;;;;;;;12.23;7.03;;;3.80;99.90;;;;;;5095125;28;20209;-72
2020/12/02 04:17:32;;;;;;;22.02;7.85;;;3.80;99.90;;;;;;5095243;28;20209;-71
2020/12/02 04:19:58;;;;;;;22.63;9.50;;;3.70;99.90;;;;;;5095574;28;20293;-70
2020/12/02 04:22:25;;;;;;;10.73;6.10;;;3.60;99.90;;;;;;5095638;28;20222;-71
2020/12/02 04:24:52;;;;;;;12.25;7.10;;;3.60;99.90;;;;;;5095387;28;20206;-71
2020/12/02 04:27:19;;;;;;;10.93;6.18;;;3.60;99.90;;;;;;5095283;28;20682;-71
2020/12/02 04:29:45;;;;;;;14.88;7.03;;;3.50;99.90;;;;;;5095590;28;20198;-71
2020/12/02 04:32:12;;;;;;;11.18;6.53;;;3.50;99.90;;;;;;5095243;28;20230;-70
2020/12/02 04:34:38;;;;;;;14.48;6.88;;;3.50;99.90;;;;;;5095285;28;20202;-70
2020/12/02 04:37:05;;;;;;;14.65;7.65;;;3.50;99.90;;;;;;5095310;28;20202;-71
2020/12/02 04:39:31;;;;;;;11.90;6.30;;;3.60;99.90;;;;;;5095296;28;20210;-71
2020/12/02 04:41:58;;;;;;;16.58;8.10;;;3.60;99.90;;;;;;5094713;28;20313;-71
2020/12/02 04:44:25;;;;;;;12.48;7.40;;;3.70;99.90;;;;;;5095666;28;20209;-71
2020/12/02 04:46:54;;;;;;;10.35;5.93;;;3.70;99.90;;;;;;5094528;28;20297;-71
2020/12/02 04:49:23;;;;;;;11.68;6.78;;;3.60;99.90;;;;;;5095067;28;20206;-71
2020/12/02 04:51:54;;;;;;;17.45;7.05;;;3.70;99.90;;;;;;5095140;28;20313;-71
2020/12/02 04:54:20;;;;;;;11.25;5.78;;;3.70;99.90;;;;;;5095098;28;20217;-71
2020/12/02 04:56:48;;;;;;;18.20;7.65;;;3.80;99.90;;;;;;5094936;28;20289;-71
2020/12/02 04:59:15;;;;;;;14.25;7.53;;;3.90;99.90;;;;;;5095161;28;20210;-71
2020/12/02 05:01:53;;;;;;;15.05;6.53;;;4.00;99.90;;;;;;5094519;28;20218;-71
2020/12/02 05:04:21;;;;;;;13.55;6.65;;;4.00;99.90;;;;;;5094881;28;20204;-71
2020/12/02 05:06:50;;;;;;;15.15;6.35;;;4.10;99.90;;;;;;5094773;28;20560;-70
2020/12/02 05:09:20;;;;;;;11.13;6.20;;;4.10;99.90;;;;;;5093939;28;20202;-70
2020/12/02 05:11:59;;;;;;;13.52;6.40;;;4.10;99.90;;;;;;5094170;28;20320;-70
2020/12/02 05:14:32;;;;;;;12.93;5.72;;;4.10;99.90;;;;;;5094471;28;20201;-71
2020/12/02 05:17:15;;;;;;;10.02;5.97;;;4.20;99.90;;;;;;5094596;28;20652;-70
2020/12/02 05:19:41;;;;;;;14.27;5.88;;;4.20;99.90;;;;;;5094703;28;20209;-71
2020/12/02 05:22:13;;;;;;;12.63;5.05;;;4.10;99.90;;;;;;5094451;28;20256;-70
2020/12/02 05:24:46;;;;;;;8.18;4.57;;;4.10;99.90;;;;;;5094220;28;20210;-71
2020/12/02 05:27:18;;;;;;;9.50;5.30;;;4.10;99.90;;;;;;5094777;28;20618;-71
2020/12/02 05:29:55;;;;;;;13.38;5.82;;;4.10;99.90;;;;;;5094478;28;20202;-71
2020/12/02 05:32:25;;;;;;;11.25;6.22;;;4.20;99.90;;;;;;5093719;28;20239;-71
2020/12/02 05:34:51;;;;;;;12.40;6.30;;;4.30;99.90;;;;;;5093834;28;20210;-71
2020/12/02 05:37:28;;;;;;;12.27;5.80;;;4.20;99.90;;;;;;5094025;28;20740;-71
2020/12/02 05:39:58;;;;;;;14.55;7.30;;;4.10;99.90;;;;;;5094188;28;20202;-70
2020/12/02 05:42:32;;;;;;;10.18;5.88;;;4.00;99.90;;;;;;5094857;28;20222;-70
2020/12/02 05:45:11;;;;;;;8.30;4.93;;;4.00;99.90;;;;;;5093759;28;20214;-71
2020/12/02 05:47:38;;;;;;;11.50;6.40;;;3.90;99.90;;;;;;5093935;28;20214;-70
2020/12/02 05:50:10;;;;;;;12.95;5.85;;;3.90;99.90;;;;;;5094111;28;20224;-71
2020/12/02 05:52:38;;;;;;;10.88;5.55;;;3.80;99.90;;;;;;5094425;28;20297;-71
2020/12/02 05:55:10;;;;;;;10.25;5.85;;;3.80;99.90;;;;;;5093821;28;20208;-70
2020/12/02 05:57:41;;;;;;;9.52;6.50;;;3.70;99.90;;;;;;5093772;28;20206;-70
2020/12/02 06:00:09;;;;;;;11.77;6.00;;;3.80;99.90;;;;;;5093911;28;20259;-71
2020/12/02 06:02:37;;;;;;;12.38;5.80;;;3.90;99.90;;;;;;5094591;28;20540;-71
2020/12/02 06:05:10;;;;;;;10.32;5.40;;;3.80;99.90;;;;;;5093680;28;20202;-71
2020/12/02 06:07:47;;;;;;;8.55;4.90;;;3.80;99.90;;;;;;5094111;28;20553;-71
2020/12/02 06:10:13;;;;;;;10.35;5.18;;;3.80;99.90;;;;;;5093699;28;20560;-71
2020/12/02 06:12:42;;;;;;;8.77;5.25;;;3.70;99.90;;;;;;5093900;28;20224;-71
2020/12/02 06:15:17;;;;;;;10.63;5.65;;;3.70;99.90;;;;;;5093442;28;20202;-71
2020/12/02 06:17:44;;;;;;;9.48;5.13;;;3.70;99.90;;;;;;5093990;28;20227;-71
2020/12/02 06:20:11;;;;;;;12.60;6.28;;;3.70;99.90;;;;;;5093877;28;20548;-71
2020/12/02 06:22:47;;;;;;;12.25;6.90;;;3.70;99.90;;;;;;5097862;28;20204;-71
2020/12/02 06:25:46;;;;;;;12.45;6.00;;;3.70;99.90;;;;;;5097730;28;20551;-71
2020/12/02 06:28:13;;;;;;;12.02;6.53;;;3.80;99.90;;;;;;5097991;28;20287;-70
2020/12/02 06:30:42;;;;;;;10.38;4.40;;;3.90;99.90;;;;;;5097863;28;20725;-71
2020/12/02 06:33:30;;;;;;;13.98;5.85;;;3.90;99.90;;;;;;5097280;28;20683;-71
2020/12/02 06:36:20;;;;;;;8.07;5.18;;;3.90;99.90;;;;;;5091592;28;20662;-71
2020/12/02 06:38:48;;;;;;;8.98;5.05;;;4.00;99.90;;;;;;5097906;28;20202;-71
2020/12/02 06:41:28;;;;;;;17.20;6.40;;;4.30;99.90;;;;;;5097037;28;20248;-71
2020/12/02 06:44:00;;;;;;;9.85;5.97;;;4.50;99.90;;;;;;5097472;28;20201;-71
2020/12/02 06:47:02;;;;;;;11.32;5.85;;;4.50;99.90;;;;;;5097254;28;20234;-72
2020/12/02 06:49:31;;;;;;;11.35;5.10;;;4.70;99.90;;;;;;5097576;28;20668;-71
2020/12/02 06:52:01;;;;;;;8.10;5.05;;;4.80;99.90;;;;;;5097235;28;20635;-71
2020/12/02 06:54:30;;;;;;;13.52;5.28;;;4.80;99.90;;;;;;5097530;28;20285;-71
2020/12/02 06:57:01;;;;;;;11.63;5.78;;;4.90;99.90;;;;;;5097287;28;20209;-72
2020/12/02 06:59:28;;;;;;;9.38;5.03;;;4.90;99.90;;;;;;5097381;28;20206;-71
2020/12/02 07:02:03;;;;;;;10.45;4.90;;;5.00;99.90;;;;;;5096811;28;20218;-71
2020/12/02 07:04:35;;;;;;;12.88;6.07;;;5.10;99.90;;;;;;5096935;28;20205;-71
2020/12/02 07:07:03;;;;;;;9.80;5.63;;;5.10;99.90;;;;;;5097064;28;20202;-71
2020/12/02 07:09:30;;;;;;;7.63;5.07;;;5.00;99.90;;;;;;5096997;28;20648;-71
2020/12/02 07:11:59;;;;;;;16.90;5.60;;;5.10;99.90;;;;;;5096402;28;20221;-71
2020/12/02 07:14:32;;;;;;;9.25;5.53;;;5.10;99.90;;;;;;5097166;28;20297;-70
2020/12/02 07:17:01;;;;;;;8.30;5.40;;;5.10;99.90;;;;;;5096595;28;20731;-71
2020/12/02 07:19:31;;;;;;;10.07;5.25;;;5.10;99.90;;;;;;5096813;28;20388;-71
2020/12/02 07:22:00;;;;;;;12.35;5.90;;;5.10;99.90;;;;;;5096634;28;20603;-71
2020/12/02 07:24:30;;;;;;;14.05;5.75;;;5.20;99.90;;;;;;5096821;28;20198;-71
2020/12/02 07:26:56;;;;;;;12.23;5.22;;;5.20;99.90;;;;;;5096980;28;20613;-71
2020/12/02 07:29:25;;;;;;;14.43;5.20;;;5.10;99.90;;;;;;5096483;28;20198;-71
2020/12/02 07:31:58;;;;;;;15.02;6.78;;;5.10;99.90;;;;;;5096033;28;20260;-71
2020/12/02 07:34:25;;;;;;;9.27;4.85;;;5.10;99.90;;;;;;5096404;28;20203;-71
2020/12/02 07:36:57;;;;;;;16.30;5.53;;;5.20;99.90;;;;;;5096440;28;20210;-71
2020/12/02 07:39:25;;;;;;;10.60;4.70;;;5.20;99.90;;;;;;5096682;28;20309;-72
2020/12/02 07:42:04;;;;;;;10.20;6.00;;;5.20;99.90;;;;;;5096085;28;20225;-71
2020/12/02 07:44:36;;;;;;;13.00;5.18;;;5.20;99.90;;;;;;5095929;28;20220;-72
2020/12/02 07:47:11;;;;;;;10.80;5.07;;;5.20;99.90;;;;;;5096080;28;20210;-71
2020/12/02 07:49:38;;;;;;;12.32;5.10;;;5.20;99.90;;;;;;5096244;28;20206;-71
2020/12/02 07:52:18;;;;;;;14.07;5.78;;;5.10;99.90;;;;;;5095686;28;20222;-71
2020/12/02 07:54:44;;;;;;;7.25;5.25;;;5.20;99.90;;;;;;5095898;28;20205;-72
2020/12/02 07:57:14;;;;;;;14.35;6.10;;;5.10;99.90;;;;;;5095980;28;20212;-71
2020/12/02 07:59:48;;;;;;;10.43;6.05;;;5.10;99.90;;;;;;5095993;28;20732;-71
2020/12/02 08:02:20;;;;;;;13.50;6.13;;;5.10;99.90;;;;;;5096156;28;20305;-71
2020/12/02 08:04:58;;;;;;;13.73;6.20;;;5.00;99.90;;;;;;5095562;28;20206;-71
2020/12/02 08:07:43;;;;;;;13.23;6.40;;;5.00;99.90;;;;;;5095761;28;20235;-71
2020/12/02 08:10:23;;;;;;;11.60;6.22;;;4.90;99.90;;;;;;5096018;28;20289;-71
2020/12/02 08:12:49;;;;;;;12.25;5.55;;;4.80;99.90;;;;;;5096235;28;20210;-71
2020/12/02 08:15:16;;;;;;;13.68;5.55;;;4.90;99.90;;;;;;5095502;28;20202;-70
2020/12/02 08:17:58;;;;;;;10.85;6.10;;;4.90;99.90;;;;;;5095605;28;20552;-71
2020/12/02 08:20:30;;;;;;;14.07;6.28;;;5.00;99.90;;;;;;5095464;28;20297;-71
2020/12/02 08:23:00;;;;;;;9.20;5.22;;;4.90;99.90;;;;;;5095351;28;20210;-71
2020/12/02 08:25:33;;;;;;;10.18;6.00;;;4.80;99.90;;;;;;5095577;28;20228;-71
2020/12/02 08:28:01;;;;;;;14.80;6.38;;;4.90;99.90;;;;;;5095491;28;20202;-71
2020/12/02 08:30:30;;;;;;;12.15;6.57;;;4.90;99.90;;;;;;5095466;28;20224;-71
2020/12/02 08:33:01;;;;;;;11.02;5.57;;;5.00;99.90;;;;;;5095734;28;20309;-71
2020/12/02 08:35:33;;;;;;;12.90;6.55;;;5.00;99.90;;;;;;5095092;28;20202;-71
2020/12/02 08:38:01;;;;;;;10.57;5.55;;;5.00;99.90;;;;;;5094845;28;20199;-71
2020/12/02 08:40:44;;;;;;;13.10;6.22;;;5.00;99.90;;;;;;5095747;28;20233;-71
2020/12/02 08:43:26;;;;;;;8.65;4.95;;;4.90;99.90;;;;;;5095420;28;20576;-71
2020/12/02 08:45:56;;;;;;;13.20;5.35;;;4.90;99.90;;;;;;5094837;28;20658;-71
2020/12/02 08:48:24;;;;;;;16.25;6.50;;;4.90;99.90;;;;;;5094666;28;20301;-71
2020/12/02 08:50:50;;;;;;;17.17;6.25;;;4.80;99.90;;;;;;5094717;28;20221;-71
2020/12/02 08:53:26;;;;;;;14.38;5.95;;;4.80;99.90;;;;;;5095105;28;20232;-70
2020/12/02 08:55:54;;;;;;;10.25;5.13;;;4.80;99.90;;;;;;5094539;28;20208;-71
2020/12/02 08:58:21;;;;;;;12.90;5.57;;;4.80;99.90;;;;;;5095114;28;20206;-71
2020/12/02 09:00:47;;;;;;;13.00;6.53;;;4.80;99.90;;;;;;5094719;28;20572;-71
2020/12/02 09:03:14;;;;;;;10.57;5.38;;;4.90;99.90;;;;;;5094498;28;20204;-71
2020/12/02 09:05:40;;;;;;;11.85;6.32;;;4.90;99.90;;;;;;5094566;28;20209;-70
2020/12/02 09:08:06;;;;;;;8.93;5.43;;;5.00;99.90;;;;;;5094852;28;20293;-70
2020/12/02 09:10:33;;;;;;;11.52;4.88;;;5.00;99.90;;;;;;5094779;28;20226;-70
2020/12/02 09:13:00;;;;;;;10.93;5.50;;;5.10;99.90;;;;;;5094792;28;20214;-71
2020/12/02 09:15:27;;;;;;;9.95;5.50;;;5.10;99.90;;;;;;5094018;28;20202;-71
2020/12/02 09:17:54;;;;;;;13.63;6.05;;;5.10;99.90;;;;;;5094539;28;20551;-70
2020/12/02 09:20:21;;;;;;;11.27;5.13;;;5.00;99.90;;;;;;5094379;28;20202;-71
2020/12/02 09:22:48;;;;;;;9.32;5.20;;;4.90;99.90;;;;;;5094549;28;20202;-71
2020/12/02 09:25:14;;;;;;;9.18;4.90;;;4.80;99.90;;;;;;5094193;28;20208;-70
2020/12/02 09:27:40;;;;;;;11.93;5.82;;;4.90;99.90;;;;;;5094070;28;20206;-71
2020/12/02 09:30:08;;;;;;;10.32;4.93;;;5.00;99.90;;;;;;5094198;28;20198;-71
2020/12/02 09:32:35;;;;;;;15.48;5.32;;;5.00;99.90;;;;;;5093918;28;20664;-70
2020/12/02 09:35:01;;;;;;;7.35;4.40;;;5.10;99.90;;;;;;5093989;28;20271;-71
2020/12/02 09:37:28;;;;;;;15.63;5.70;;;5.00;99.90;;;;;;5094255;28;20202;-71
2020/12/02 09:39:55;;;;;;;11.95;5.68;;;5.10;99.90;;;;;;5094424;28;20198;-70
2020/12/02 09:43:01;;;;;;;8.90;4.90;;;5.10;99.90;;;;;;5094365;28;20407;-71
2020/12/02 09:45:37;;;;;;;9.90;5.53;;;5.10;99.90;;;;;;5052900;28;20201;-71
2020/12/02 09:48:10;;;;;;;9.50;4.95;;;5.20;99.90;;;;;;5093741;28;20595;-71
2020/12/02 09:50:37;;;;;;;10.10;4.72;;;5.20;99.90;;;;;;5094316;28;20237;-71
2020/12/02 09:53:14;;;;;;;10.63;4.43;;;5.20;99.90;;;;;;5093822;28;20232;-71
2020/12/02 09:55:41;;;;;;;10.00;5.00;;;5.10;99.90;;;;;;5093149;28;20212;-71
2020/12/02 09:58:09;;;;;;;8.93;4.80;;;5.10;99.90;;;;;;5093896;28;20293;-71
2020/12/02 10:00:36;;;;;;;11.50;6.00;;;5.20;99.90;;;;;;5093957;28;20309;-71
2020/12/02 10:03:36;;;;;;;9.48;5.03;;;5.10;99.90;;;;;;5094453;28;20293;-70
2020/12/02 10:06:39;;;;;;;6.53;4.18;;;5.10;99.90;;;;;;5093497;28;20571;-70
2020/12/02 10:09:35;;;;;;;10.65;4.50;;;5.20;99.90;;;;;;5094070;28;20731;-71
2020/12/02 10:12:11;;;;;;;14.05;6.43;;;5.10;99.90;;;;;;5093879;28;20230;-71
2020/12/02 10:15:09;;;;;;;15.25;7.05;;;4.80;99.90;;;;;;5094116;28;20551;-72
2020/12/02 10:18:07;;;;;;;10.88;5.72;;;4.70;99.90;;;;;;5093912;28;20289;-71
2020/12/02 10:20:42;;;;;;;10.80;5.47;;;4.70;99.90;;;;;;5093711;28;20230;-71
2020/12/02 10:23:37;;;;;;;15.70;6.20;;;4.70;99.90;;;;;;5093833;28;20181;-71
2020/12/02 10:26:32;;;;;;;14.15;5.50;;;4.80;99.90;;;;;;5093382;28;20198;-70
2020/12/02 10:29:00;;;;;;;14.55;6.88;;;4.90;99.90;;;;;;5093577;28;20289;-71
2020/12/02 10:31:39;;;;;;;14.48;5.43;;;4.90;99.90;;;;;;5093738;28;20224;-71
2020/12/02 10:34:14;;;;;;;10.85;4.50;;;4.80;99.90;;;;;;5094128;28;20213;-71
2020/12/02 10:36:43;;;;;;;14.48;6.88;;;4.70;99.90;;;;;;5093178;28;20600;-71
2020/12/02 10:39:14;;;;;;;13.95;6.88;;;4.70;99.90;;;;;;5093587;28;20210;-71
2020/12/02 10:41:49;;;;;;;16.60;6.40;;;4.70;99.90;;;;;;5093792;28;20226;-71
2020/12/02 10:44:38;;;;;;;13.40;7.10;;;4.80;99.90;;;;;;5093781;28;20198;-71
2020/12/02 10:47:53;;;;;;;12.02;5.90;;;4.80;99.90;;;;;;5093204;28;20210;-71
2020/12/02 10:50:24;;;;;;;10.88;6.03;;;5.00;99.90;;;;;;5011391;28;20614;-71
2020/12/02 10:52:53;;;;;;;13.43;6.75;;;5.00;99.90;;;;;;5077049;28;20222;-71
2020/12/02 10:55:23;;;;;;;18.33;6.25;;;5.00;99.90;;;;;;5093028;28;20210;-71
2020/12/02 10:57:56;;;;;;;13.52;6.45;;;5.00;99.90;;;;;;5093424;28;20202;-71
2020/12/02 11:00:22;;;;;;;15.32;6.95;;;5.00;99.90;;;;;;5093169;28;20213;-71
2020/12/02 11:03:06;;;;;;;12.20;6.78;;;5.20;99.90;;;;;;5093329;28;20289;-71
2020/12/02 11:05:33;;;;;;;9.48;5.18;;;5.20;99.90;;;;;;5093015;28;20209;-70
2020/12/02 11:08:07;;;;;;;11.70;5.93;;;5.30;99.90;;;;;;5094485;28;20206;-71
2020/12/02 11:10:41;;;;;;;12.85;4.70;;;5.40;99.90;;;;;;5096972;28;20226;-71
2020/12/02 11:13:18;;;;;;;11.57;6.20;;;5.50;99.90;;;;;;5097237;28;20211;-71
2020/12/02 11:15:51;;;;;;;13.15;6.47;;;5.60;99.90;;;;;;5096608;28;20205;-70
2020/12/02 11:18:33;;;;;;;13.07;5.75;;;5.60;99.90;;;;;;5096751;28;20190;-71
2020/12/02 11:21:12;;;;;;;13.70;6.65;;;5.70;99.90;;;;;;5096499;28;20222;-70
2020/12/02 11:24:03;;;;;;;11.18;5.70;;;5.80;99.90;;;;;;5096322;28;20186;-71
2020/12/02 11:26:32;;;;;;;8.32;4.93;;;5.90;99.90;;;;;;5096217;28;20225;-71
2020/12/02 11:29:01;;;;;;;9.10;6.00;;;5.90;99.90;;;;;;5096280;28;20202;-71
2020/12/02 11:31:51;;;;;;;13.52;6.28;;;5.80;99.90;;;;;;5096359;28;20221;-71
2020/12/02 11:34:43;;;;;;;11.27;6.55;;;5.80;99.90;;;;;;5096679;28;20577;-71
2020/12/02 11:37:15;;;;;;;12.27;6.13;;;5.70;99.90;;;;;;5096006;28;20638;-71
2020/12/02 11:40:02;;;;;;;7.40;5.80;;;5.60;99.90;;;;;;5096481;28;20198;-70
2020/12/02 11:42:38;;;;;;;11.50;6.03;;;5.60;99.90;;;;;;5096742;28;20553;-70
2020/12/02 11:45:12;;;;;;;15.18;6.47;;;5.50;99.90;;;;;;5089073;28;20207;-73
2020/12/02 11:47:53;;;;;;;16.13;6.72;;;5.50;99.90;;;;;;5097890;28;20219;-72
2020/12/02 11:50:23;;;;;;;13.85;6.35;;;5.50;99.90;;;;;;5115396;27;20201;-72
2020/12/02 11:53:04;;;;;;;13.65;6.45;;;5.50;99.90;;;;;;5114887;28;20699;-73
2020/12/02 11:55:32;;;;;;;11.75;6.40;;;5.40;99.90;;;;;;5114744;28;20219;-72
2020/12/02 11:58:00;;;;;;;17.92;6.80;;;5.40;99.90;;;;;;5114738;28;20559;-74
2020/12/02 12:00:26;;;;;;;11.73;6.03;;;5.50;99.90;;;;;;5114718;28;20232;-74
2020/12/02 12:03:20;;;;;;;14.32;5.80;;;5.40;99.90;;;;;;5114905;28;20212;-73
2020/12/02 12:05:57;;;;;;;12.85;4.70;;;5.30;99.90;;;;;;5114484;28;20730;-74
2020/12/02 12:08:31;;;;;;;11.48;4.75;;;5.40;99.90;;;;;;5114491;28;20874;-73
2020/12/02 12:11:02;;;;;;;11.18;5.45;;;5.40;99.90;;;;;;5114448;28;20705;-74
2020/12/02 12:13:37;;;;;;;14.18;5.88;;;5.40;99.90;;;;;;5114824;27;20320;-73
2020/12/02 12:16:15;;;;;;;10.60;5.35;;;5.40;99.90;;;;;;5114422;28;20671;-73
2020/12/02 12:18:50;;;;;;;13.00;5.25;;;5.40;99.90;;;;;;5113826;28;20185;-74
2020/12/02 12:21:29;;;;;;;14.15;6.55;;;5.30;99.90;;;;;;5114424;28;20308;-73
2020/12/02 12:24:01;;;;;;;10.30;5.40;;;5.40;99.90;;;;;;5114703;28;20204;-73
2020/12/02 12:26:31;;;;;;;17.65;7.00;;;5.30;99.90;;;;;;5093356;27;20199;-76
2020/12/02 12:28:58;;;;;;;13.60;5.95;;;5.20;99.90;;;;;;5083215;28;20199;-75
2020/12/02 12:31:34;;;;;;;11.65;6.25;;;5.30;99.90;;;;;;5083425;28;20214;-76
2020/12/02 12:34:06;;;;;;;10.93;5.40;;;5.20;99.90;;;;;;5081562;28;20216;-75
2020/12/02 12:36:34;;;;;;;8.95;4.82;;;5.30;99.90;;;;;;5081366;28;20721;-76
2020/12/02 12:39:08;;;;;;;13.63;6.55;;;5.30;99.90;;;;;;5082835;28;20198;-75
2020/12/02 12:41:39;;;;;;;11.95;5.72;;;5.30;99.90;;;;;;5083024;28;20310;-74
2020/12/02 12:44:13;;;;;;;14.73;6.15;;;5.20;99.90;;;;;;5082533;28;20324;-73
2020/12/02 12:46:45;;;;;;;16.30;6.35;;;5.30;99.90;;;;;;5080859;28;20260;-73
2020/12/02 12:49:13;;;;;;;17.20;5.82;;;5.20;99.90;;;;;;5081200;28;20198;-72
2020/12/02 12:51:40;;;;;;;12.90;5.68;;;5.20;99.90;;;;;;5080005;28;20210;-73
2020/12/02 12:54:14;;;;;;;13.10;5.43;;;5.20;99.90;;;;;;5081934;28;20584;-73
2020/12/02 12:56:41;;;;;;;15.38;6.00;;;5.20;99.90;;;;;;5080921;28;20576;-72
2020/12/02 12:59:11;;;;;;;12.20;5.15;;;5.20;99.90;;;;;;5081583;28;20204;-73
2020/12/02 13:01:39;;;;;;;14.23;6.15;;;5.20;99.90;;;;;;5083443;28;20241;-74
2020/12/02 13:04:06;;;;;;;12.30;5.88;;;5.20;99.90;;;;;;5082049;28;20190;-72
2020/12/02 13:06:44;;;;;;;11.45;6.57;;;5.20;99.90;;;;;;5088945;28;20252;-73
2020/12/02 13:09:26;;;;;;;15.48;6.50;;;5.20;99.90;;;;;;5093224;28;20202;-70
2020/12/02 13:12:03;;;;;;;14.48;6.20;;;5.20;99.90;;;;;;5093074;28;20332;-74